Latest Weather Observations for Richmond

IDN60801

Issued at 4:04 am EDT Friday 19 December 2014 (issued every 30 minutes, with the page automatically refreshed every 10 minutes)

About weather observations | Map of weather stations | Latest weather observations for NSW | Other Formats
Station Details ID: 067105 Name: RICHMOND RAAF Lat: -33.60 Lon: 150.78 Height: 19.0 m
Data from the previous 72 hours. | See also: Recent months at Richmond
Date/Time
EDT
Temp
°C
App
Temp
°C
Dew
Point
Rel
Hum
%
Delta-T
°C
Wind Press
QNH
hPa
Press
MSL
hPa
Rain
since 9 am
mm
Dir
 
Spd
km/h
Gust
km/h
Spd
kts
Gust
kts
19/04:00am 16.2 15.1 10.5 69 3.0 WNW 7 11 4 6 1007.7 1007.6 -
19/03:30am 16.4 15.6 11.8 74 2.5 W 7 9 4 5 1007.3 1007.2 0.0
19/02:30am 17.9 17.6 14.4 80 2.0 WSW 9 11 5 6 1006.6 1006.5 0.0
19/02:00am 18.3 19.4 17.0 92 0.8 SW 7 9 4 5 1006.5 1006.4 0.0
19/01:30am 18.8 20.0 17.3 91 0.9 WSW 7 9 4 5 1006.3 1006.2 0.0
19/01:00am 19.1 20.7 18.3 95 0.5 SW 7 9 4 5 1006.4 1006.3 0.0
19/12:57am 19.1 20.7 18.3 95 0.5 SW 7 9 4 5 1006.4 1006.3 0.0
19/12:34am 19.3 21.0 18.0 92 0.8 W 6 6 3 3 1006.3 1006.2 0.0
19/12:30am 19.3 21.0 18.1 93 0.7 W 6 6 3 3 1006.3 1006.2 0.0
19/12:01am 19.8 21.6 18.8 94 0.6 NW 7 7 4 4 1006.5 1006.4 0.0
19/12:00am 19.8 21.6 18.8 94 0.6 NW 7 7 4 4 1006.5 1006.4 0.0
 
Date/Time
EDT
Temp
°C
App
Temp
°C
Dew
Point
Rel
Hum
%
Delta-T
°C
Wind Press
QNH
hPa
Press
MSL
hPa
Rain
since 9 am
mm
Dir
 
Spd
km/h
Gust
km/h
Spd
kts
Gust
kts
18/11:46pm 19.6 21.4 18.3 92 0.8 N 6 7 3 4 1006.5 1006.4 0.0
18/11:30pm 20.8 24.3 19.5 92 0.8 CALM 0 6 0 3 1006.6 1006.5 0.0
18/11:00pm 21.6 25.2 19.7 89 1.2 CALM 0 2 0 1 1006.6 1006.5 0.0
18/10:30pm 21.6 23.7 19.3 87 1.5 WSW 7 9 4 5 1006.5 1006.4 0.0
18/10:00pm 22.7 24.9 19.7 83 1.9 E 7 9 4 5 1006.1 1006.0 0.0
18/09:30pm 23.1 25.0 19.7 81 2.2 E 9 13 5 7 1005.8 1005.7 0.0
18/09:00pm 23.8 25.5 20.1 80 2.4 E 11 15 6 8 1005.6 1005.5 0.0
18/08:30pm 24.3 26.3 20.0 77 2.8 E 9 13 5 7 1005.1 1005.0 0.0
18/08:00pm 24.7 25.9 19.8 74 3.2 NE 13 15 7 8 1004.9 1004.8 0.0
18/07:30pm 27.0 29.9 19.1 62 5.1 SSW 2 17 1 9 1004.5 1004.4 0.0
18/07:00pm 28.9 31.3 18.7 54 6.6 WSW 4 7 2 4 1004.0 1003.9 0.0
18/06:30pm 29.0 31.5 18.1 51 7.0 NNW 2 6 1 3 1003.6 1003.5 0.0
18/06:00pm 28.9 30.8 18.9 54 6.5 WNW 7 9 4 5 1003.3 1003.2 0.0
18/05:30pm 28.2 30.6 18.0 54 6.5 NNW 2 7 1 4 1003.0 1002.9 0.0
18/05:00pm 27.9 29.1 18.3 56 6.1 ENE 9 13 5 7 1002.9 1002.8 0.0
18/04:30pm 27.6 27.8 17.7 54 6.3 NE 13 22 7 12 1003.3 1003.2 0.0
18/04:00pm 27.5 27.8 17.9 55 6.1 NE 13 24 7 13 1004.0 1003.9 0.0
18/03:30pm 28.0 29.2 19.8 61 5.4 ENE 13 22 7 12 1004.3 1004.2 0.0
18/03:00pm 26.8 26.7 17.8 57 5.7 NE 15 26 8 14 1004.9 1004.8 0.0
18/02:30pm 26.1 26.1 17.2 58 5.6 ENE 13 22 7 12 1005.4 1005.3 0.0
18/02:00pm 26.1 26.5 18.2 61 5.0 NE 13 20 7 11 1005.8 1005.7 0.0
18/01:30pm 24.5 24.0 17.7 66 4.3 NE 17 28 9 15 1006.2 1006.1 0.0
18/01:00pm 24.2 25.0 18.2 69 3.8 NNE 11 17 6 9 1006.9 1006.8 0.0
18/12:30pm 24.0 25.5 19.7 77 2.8 NE 11 20 6 11 1007.5 1007.4 0.0
18/12:00pm 22.8 23.2 17.3 71 3.4 NNE 11 17 6 9 1008.0 1007.9 0.0
18/11:30am 22.3 23.4 17.2 73 3.1 SSE 7 11 4 6 1008.3 1008.2 0.0
18/11:00am 20.8 21.7 16.2 75 2.8 WSW 6 9 3 5 1009.1 1009.0 0.0
18/10:30am 20.1 20.7 15.9 77 2.5 SSW 7 11 4 6 1009.3 1009.2 0.0
18/10:16am 20.0 20.7 16.0 78 2.4 SSW 7 11 4 6 1009.5 1009.4 0.0
18/10:00am 19.5 19.9 16.2 81 2.0 S 9 17 5 9 1009.7 1009.6 0.0
18/09:47am 19.1 19.8 16.1 83 1.8 SSW 7 11 4 6 1010.0 1009.9 0.0
18/09:30am 18.7 19.3 15.9 84 1.7 S 7 9 4 5 1010.2 1010.1 0.0
18/09:00am 18.2 18.9 15.6 85 1.5 SSE 6 9 3 5 1010.6 1010.5 0.0
18/08:30am 17.9 18.5 15.9 88 1.2 SSE 7 9 4 5 1010.6 1010.5 0.0
18/08:00am 17.6 17.9 15.9 90 1.0 S 9 13 5 7 1010.4 1010.3 0.0
18/07:52am 17.3 17.9 15.8 91 0.9 S 7 11 4 6 1010.6 1010.5 0.0
18/07:30am 17.0 17.6 15.9 93 0.6 S 7 9 4 5 1010.5 1010.4 0.0
18/07:27am 17.0 17.6 15.9 93 0.6 S 7 9 4 5 1010.5 1010.4 0.0
18/07:00am 16.8 17.5 16.0 95 0.5 SSW 7 9 4 5 1010.5 1010.4 0.0
18/06:30am 16.6 16.8 15.8 95 0.5 SW 9 11 5 6 1010.1 1010.0 0.0
18/06:00am 16.6 17.1 15.6 94 0.6 SSW 7 9 4 5 1009.7 1009.6 0.0
18/05:50am 16.6 16.7 15.5 93 0.6 SSW 9 9 5 5 1009.7 1009.6 0.0
18/05:30am 16.8 17.4 15.2 90 0.9 SW 6 7 3 4 1009.6 1009.5 0.0
18/05:09am 17.1 17.4 14.9 87 1.3 SSW 7 9 4 5 1009.5 1009.4 0.0
18/05:00am 17.2 17.5 15.0 87 1.3 SSW 7 9 4 5 1009.5 1009.4 0.0
18/04:30am 17.3 17.5 14.8 85 1.4 SSW 7 9 4 5 1009.1 1009.0 0.0
18/04:00am 17.4 17.7 15.0 86 1.4 SSW 7 9 4 5 1009.0 1008.9 0.0
18/03:30am 17.4 17.7 15.0 86 1.4 SSW 7 9 4 5 1009.0 1008.9 0.0
18/03:00am 17.5 17.4 15.0 85 1.5 WSW 9 11 5 6 1009.6 1009.5 0.0
18/02:30am 17.6 17.9 15.0 85 1.5 WSW 7 9 4 5 1010.3 1010.2 0.0
18/02:00am 17.6 17.4 14.7 83 1.7 WSW 9 11 5 6 1010.5 1010.4 0.0
18/01:30am 17.6 17.5 15.0 85 1.5 WNW 9 11 5 6 1010.3 1010.2 0.0
18/01:00am 17.8 18.2 14.7 82 1.8 WSW 6 7 3 4 1010.9 1010.8 0.0
18/12:30am 17.7 19.2 14.6 82 1.8 CALM 0 4 0 2 1011.0 1010.9 0.0
18/12:00am 17.8 17.5 14.5 81 1.9 SSE 9 9 5 5 1011.2 1011.1 0.0
 
Date/Time
EDT
Temp
°C
App
Temp
°C
Dew
Point
Rel
Hum
%
Delta-T
°C
Wind Press
QNH
hPa
Press
MSL
hPa
Rain
since 9 am
mm
Dir
 
Spd
km/h
Gust
km/h
Spd
kts
Gust
kts
17/11:30pm 18.2 17.9 14.3 78 2.2 SSE 9 11 5 6 1011.3 1011.2 0.0
17/11:00pm 18.3 17.9 14.0 76 2.5 SE 9 15 5 8 1011.8 1011.7 0.0
17/10:30pm 18.4 17.6 13.9 75 2.6 SE 11 13 6 7 1011.6 1011.5 0.0
17/10:00pm 18.5 17.6 13.8 74 2.7 ESE 11 15 6 8 1011.7 1011.6 0.0
17/09:30pm 18.6 17.3 13.7 73 2.8 ESE 13 20 7 11 1011.6 1011.5 0.0
17/09:00pm 18.6 17.3 13.7 73 2.8 E 13 20 7 11 1011.0 1010.9 0.0
17/08:30pm 19.0 17.7 13.8 72 3.0 ENE 13 20 7 11 1010.9 1010.8 0.0
17/08:00pm 19.2 17.9 13.6 70 3.2 E 13 22 7 12 1010.4 1010.3 0.0
17/07:30pm 19.8 17.7 13.5 67 3.6 ESE 17 22 9 12 1009.9 1009.8 0.0
17/07:00pm 19.9 18.1 13.4 66 3.7 ESE 15 22 8 12 1009.2 1009.1 0.0
17/06:30pm 20.2 17.4 13.2 64 4.0 SE 20 28 11 15 1008.5 1008.4 0.0
17/06:00pm 20.6 17.4 13.1 62 4.3 ESE 22 28 12 15 1008.0 1007.9 0.0
17/05:30pm 21.1 18.2 13.0 60 4.6 SE 20 26 11 14 1007.6 1007.5 0.0
17/05:00pm 21.2 18.0 13.1 60 4.6 SE 22 30 12 16 1007.4 1007.3 0.0
17/04:30pm 21.3 17.6 12.7 58 4.9 SE 24 35 13 19 1007.3 1007.2 0.0
17/04:00pm 22.5 19.6 13.0 55 5.5 SE 20 37 11 20 1007.0 1006.9 0.0
17/03:30pm 23.5 20.6 13.9 55 5.6 ESE 22 32 12 17 1006.9 1006.8 0.0
17/03:00pm 23.3 19.7 13.2 53 5.9 ESE 24 37 13 20 1006.9 1006.8 0.0
17/02:30pm 24.1 21.7 13.9 53 6.0 ESE 19 26 10 14 1006.8 1006.7 0.0
17/02:00pm 24.1 22.0 13.6 52 6.1 SE 17 24 9 13 1006.8 1006.7 0.0
17/01:30pm 23.8 20.7 13.4 52 6.0 ESE 22 32 12 17 1006.9 1006.8 0.0
17/01:00pm 23.6 21.7 14.3 56 5.5 ESE 17 28 9 15 1007.0 1006.9 0.0
17/12:30pm 23.1 20.5 13.8 55 5.4 ESE 20 28 11 15 1007.2 1007.1 0.0
17/12:00pm 22.6 19.8 13.1 55 5.5 E 20 33 11 18 1007.3 1007.2 0.0
17/11:30am 23.2 21.4 14.5 58 5.1 E 17 24 9 13 1007.1 1007.0 0.0
17/11:00am 22.7 20.3 14.5 60 4.8 ESE 20 26 11 14 1007.1 1007.0 0.0
17/10:30am 22.0 20.1 14.1 61 4.6 SE 17 20 9 11 1006.9 1006.8 0.0
17/10:00am 21.6 20.2 14.5 64 4.2 SSE 15 20 8 11 1006.8 1006.7 0.0
17/09:30am 21.2 19.9 14.8 67 3.8 SSE 15 20 8 11 1006.5 1006.4 0.0
17/09:00am 20.9 19.1 14.5 67 3.8 SSE 17 22 9 12 1006.3 1006.2 0.0
17/08:30am 20.4 19.1 14.7 70 3.3 S 15 20 8 11 1006.2 1006.1 0.0
17/08:00am 20.8 19.1 15.8 73 3.0 SE 19 24 10 13 1005.5 1005.4 0.0
17/07:30am 20.1 19.4 15.3 74 2.8 SSE 13 22 7 12 1005.1 1005.0 0.0
17/07:00am 19.6 18.6 15.7 78 2.3 SE 15 22 8 12 1004.0 1003.9 0.0
17/06:30am 18.5 19.9 17.3 93 0.7 SW 6 9 3 5 1002.8 1002.7 0.0
17/06:00am 16.8 17.2 16.3 97 0.3 S 9 11 5 6 1001.3 1001.2 0.0
17/05:30am 16.2 17.9 15.2 94 0.6 CALM 0 7 0 4 1000.2 1000.1 0.0
17/05:00am 16.4 18.2 15.6 95 0.5 CALM 0 0 0 0 999.6 999.5 0.0
17/04:30am 16.2 16.6 15.4 95 0.5 WNW 7 9 4 5 998.9 998.8 0.0
17/04:00am 17.2 19.3 16.2 94 0.6 CALM 0 6 0 3 998.6 998.5 0.0
17/03:30am 17.3 18.4 16.5 95 0.5 SW 6 13 3 7 998.4 998.3 0.0
17/03:00am 17.7 20.1 17.1 96 0.4 CALM 0 0 0 0 998.1 998.0 0.0
17/02:30am 18.3 21.0 17.7 96 0.4 CALM 0 0 0 0 998.3 998.2 0.0
17/02:28am 18.5 21.3 18.0 97 0.3 CALM 0 0 0 0 998.3 998.2 0.0
17/02:18am 18.1 19.6 17.5 96 0.4 N 6 9 3 5 998.2 998.1 0.0
17/02:00am 18.2 20.6 17.0 93 0.7 CALM 0 6 0 3 998.3 998.2 0.0
17/01:30am 18.3 19.3 16.8 91 0.9 E 7 9 4 5 998.3 998.2 0.0
17/01:00am 18.8 21.4 17.5 92 0.8 CALM 0 0 0 0 998.4 998.3 0.0
17/12:30am 19.4 22.0 17.5 89 1.2 CALM 0 0 0 0 998.6 998.5 0.0
17/12:00am 20.8 23.8 18.4 86 1.5 CALM 0 0 0 0 998.7 998.6 0.0
 
Date/Time
EDT
Temp
°C
App
Temp
°C
Dew
Point
Rel
Hum
%
Delta-T
°C
Wind Press
QNH
hPa
Press
MSL
hPa
Rain
since 9 am
mm
Dir
 
Spd
km/h
Gust
km/h
Spd
kts
Gust
kts
16/11:30pm 20.7 23.3 18.3 86 1.5 NE 2 7 1 4 998.6 998.5 0.0
16/11:00pm 21.2 24.3 18.6 85 1.6 CALM 0 0 0 0 998.6 998.5 0.0
16/10:30pm 21.5 24.4 18.3 82 2.0 CALM 0 0 0 0 998.7 998.6 0.0
16/10:00pm 24.0 25.4 18.6 72 3.4 SW 9 11 5 6 999.0 998.9 0.0
16/09:30pm 24.2 25.3 18.8 72 3.4 SW 11 13 6 7 998.7 998.6 0.0
16/09:00pm 25.1 26.3 19.0 69 3.9 SSW 11 13 6 7 998.1 998.0 0.0
16/08:30pm 26.3 27.4 18.9 63 4.7 SSW 11 13 6 7 997.6 997.5 0.0
16/08:00pm 27.4 28.5 18.9 59 5.5 SW 11 15 6 8 997.2 997.1 0.0
16/07:30pm 29.8 30.8 18.6 51 7.2 SSE 11 13 6 7 996.6 996.5 0.0
16/07:00pm 31.3 31.2 17.9 44 8.6 E 15 20 8 11 996.1 996.0 0.0
16/06:30pm 32.1 32.7 18.7 45 8.7 E 13 20 7 11 995.7 995.6 0.0
16/06:00pm 31.2 31.8 18.5 46 8.3 ENE 13 22 7 12 995.6 995.5 0.0
16/05:30pm 31.4 28.9 18.0 44 8.6 NE 28 35 15 19 995.0 994.9 0.0
16/05:00pm 31.6 29.7 18.6 46 8.5 NE 26 37 14 20 995.3 995.2 0.0
16/04:30pm 31.5 30.4 17.8 44 8.8 ENE 20 32 11 17 996.2 996.1 0.0
16/04:00pm 32.2 28.8 15.7 37 10.3 NE 28 39 15 21 996.9 996.8 0.0
16/03:30pm 31.1 27.8 15.1 38 9.8 NE 26 37 14 20 997.5 997.4 0.0
16/03:00pm 31.5 28.3 16.3 40 9.6 NE 28 39 15 21 997.9 997.8 0.0
16/02:30pm 30.3 27.4 17.0 44 8.4 NE 28 37 15 20 998.7 998.6 0.0
16/02:00pm 29.0 25.5 16.5 46 7.8 NE 30 37 16 20 999.8 999.7 0.0
16/01:30pm 28.4 25.2 17.3 51 7.0 NE 30 39 16 21 1000.4 1000.3 0.0
16/01:00pm 27.3 24.2 15.6 48 7.2 NNE 26 35 14 19 1001.4 1001.3 0.0
16/12:30pm 25.4 22.4 14.8 52 6.3 NE 24 28 13 15 1002.4 1002.3 0.0
16/12:00pm 25.7 22.6 14.5 50 6.7 NE 24 33 13 18 1003.2 1003.1 0.0
16/11:30am 24.9 23.9 15.5 56 5.7 NE 15 20 8 11 1004.4 1004.3 0.0
16/11:00am 24.4 25.0 15.9 59 5.2 NE 7 11 4 6 1004.8 1004.7 0.0
16/10:30am 22.3 22.4 15.4 65 4.1 E 9 11 5 6 1005.0 1004.9 0.0
16/10:00am 21.8 21.0 15.2 66 3.9 E 13 17 7 9 1005.5 1005.4 0.0
16/09:30am 22.0 22.0 16.3 70 3.5 E 11 20 6 11 1006.0 1005.9 0.0
16/09:00am 19.8 20.4 15.2 75 2.7 NNE 6 9 3 5 1007.3 1007.2 0.0
16/08:30am 19.4 19.7 14.6 74 2.8 NW 6 9 3 5 1007.1 1007.0 0.0
16/08:00am 18.8 18.9 14.5 76 2.5 ENE 7 11 4 6 1006.6 1006.5 0.0
16/07:30am 18.5 20.0 14.6 78 2.3 CALM 0 0 0 0 1006.7 1006.6 0.0
16/07:00am 17.1 16.7 14.0 82 1.8 NE 9 13 5 7 1006.1 1006.0 0.0
16/06:30am 16.1 16.3 14.8 92 0.7 NNE 7 9 4 5 1006.5 1006.4 0.0
16/06:00am 15.3 15.3 14.2 93 0.6 N 7 9 4 5 1006.6 1006.5 0.0
16/05:30am 15.7 15.9 14.6 93 0.6 NNE 7 9 4 5 1006.8 1006.7 0.0
16/05:00am 15.8 16.2 13.8 88 1.1 WNW 4 7 2 4 1007.0 1006.9 0.0
16/04:30am 16.3 17.6 14.1 87 1.2 CALM 0 0 0 0 1007.1 1007.0 0.0

Other Formats:

Comma delimited format used in spreadsheet applications
http://www.bom.gov.au/fwo/IDN60801/IDN60801.95753.axf

JavaScript Object Notation format (JSON) in row-major order
http://www.bom.gov.au/fwo/IDN60801/IDN60801.95753.json